Time;durP1;ratioP1;P1;durP2;ratioP2;P2;SDS_P1;SDS_P2;PMS_P1;PMS_P2;Temp;Humidity;BMP_temperature;BMP_pressure;BME280_temperature;BME280_humidity;BME280_pressure;Samples;Min_cycle;Max_cycle;Signal;HPM_P1;HPM_P2
2023/10/18 00:01:24;;;;;;;9.55;5.10;;;6.10;99.90;;;;;;5081079;28;20085;-74
2023/10/18 00:03:54;;;;;;;9.80;4.90;;;6.10;99.90;;;;;;5080337;28;20047;-75
2023/10/18 00:06:22;;;;;;;8.25;4.85;;;6.10;99.90;;;;;;5115599;28;20100;-73
2023/10/18 00:08:48;;;;;;;7.05;4.72;;;6.10;99.90;;;;;;5097438;28;20113;-76
2023/10/18 00:11:18;;;;;;;9.18;4.68;;;6.00;99.90;;;;;;5115540;28;20039;-74
2023/10/18 00:13:49;;;;;;;11.65;5.63;;;6.00;99.90;;;;;;5097657;28;20047;-74
2023/10/18 00:16:16;;;;;;;9.00;5.53;;;6.00;99.90;;;;;;5081540;28;20051;-73
2023/10/18 00:18:43;;;;;;;8.75;5.20;;;6.00;99.90;;;;;;5097649;28;20079;-74
2023/10/18 00:21:08;;;;;;;9.57;5.50;;;6.00;99.90;;;;;;5097174;28;20258;-74
2023/10/18 00:23:34;;;;;;;9.05;5.80;;;6.00;99.90;;;;;;5096850;28;20099;-74
2023/10/18 00:26:05;;;;;;;10.15;5.38;;;6.00;99.90;;;;;;5097108;28;20083;-74
2023/10/18 00:28:31;;;;;;;11.85;6.15;;;5.90;99.90;;;;;;5115283;28;20184;-73
2023/10/18 00:31:09;;;;;;;9.90;6.25;;;5.90;99.90;;;;;;5096648;28;20598;-74
2023/10/18 00:33:35;;;;;;;12.25;6.35;;;5.90;99.90;;;;;;5080536;28;20059;-73
2023/10/18 00:36:00;;;;;;;9.38;6.18;;;5.90;99.90;;;;;;5096966;28;20044;-73
2023/10/18 00:38:26;;;;;;;8.88;7.05;;;5.90;99.90;;;;;;5097223;28;20651;-74
2023/10/18 00:40:52;;;;;;;7.70;6.38;;;5.90;99.90;;;;;;5097386;28;20047;-76
2023/10/18 00:43:21;;;;;;;14.40;7.38;;;5.90;99.90;;;;;;5080039;28;20048;-74
2023/10/18 00:45:51;;;;;;;10.07;6.65;;;5.90;99.90;;;;;;5080754;28;20127;-74
2023/10/18 00:48:23;;;;;;;12.90;6.70;;;5.90;99.90;;;;;;5115038;28;20050;-74
2023/10/18 00:50:52;;;;;;;17.33;7.40;;;5.90;99.90;;;;;;5115049;28;20052;-74
2023/10/18 00:53:30;;;;;;;12.32;7.55;;;5.90;99.90;;;;;;5079395;28;20583;-73
2023/10/18 00:55:59;;;;;;;10.73;7.43;;;5.90;99.90;;;;;;5114796;28;20143;-77
2023/10/18 00:58:27;;;;;;;9.98;7.30;;;5.80;99.90;;;;;;5096572;28;20101;-74
2023/10/18 01:00:56;;;;;;;10.60;7.53;;;5.80;99.90;;;;;;5096960;28;20105;-74
2023/10/18 01:03:32;;;;;;;13.63;7.78;;;5.80;99.90;;;;;;5114772;28;20118;-75
2023/10/18 01:06:00;;;;;;;12.23;8.02;;;5.70;99.90;;;;;;5079596;28;20035;-77
2023/10/18 01:08:30;;;;;;;13.15;8.43;;;5.70;99.90;;;;;;5096655;28;20047;-74
2023/10/18 01:11:03;;;;;;;12.95;8.90;;;5.70;99.90;;;;;;5096523;28;20043;-76
2023/10/18 01:13:30;;;;;;;14.68;8.90;;;5.70;99.90;;;;;;5079855;28;20052;-75
2023/10/18 01:15:56;;;;;;;13.57;10.13;;;5.70;99.90;;;;;;5114649;28;20044;-75
2023/10/18 01:18:22;;;;;;;11.30;8.30;;;5.70;99.90;;;;;;5095913;28;20062;-75
2023/10/18 01:20:48;;;;;;;15.75;9.98;;;5.60;99.90;;;;;;5079612;28;20126;-74
2023/10/18 01:23:14;;;;;;;13.60;10.15;;;5.70;99.90;;;;;;5062442;28;20544;-75
2023/10/18 01:25:40;;;;;;;15.63;9.30;;;5.70;99.90;;;;;;5096403;28;20075;-74
2023/10/18 01:28:06;;;;;;;15.88;11.10;;;5.60;99.90;;;;;;5078923;28;20097;-75
2023/10/18 01:30:33;;;;;;;14.38;10.23;;;5.60;99.90;;;;;;5113412;28;20087;-73
2023/10/18 01:33:01;;;;;;;16.63;11.30;;;5.60;99.90;;;;;;5096192;28;20055;-74
2023/10/18 01:35:27;;;;;;;15.20;11.95;;;5.60;99.90;;;;;;5095424;28;20044;-74
2023/10/18 01:37:53;;;;;;;16.08;11.32;;;5.60;99.90;;;;;;5095528;28;20048;-74
2023/10/18 01:42:56;;;;;;;16.40;11.75;;;5.60;99.90;;;;;;5096006;28;20048;-73
2023/10/18 01:45:38;;;;;;;20.95;13.20;;;5.60;99.90;;;;;;5095463;28;20047;-73
2023/10/18 01:48:09;;;;;;;16.23;12.80;;;5.60;99.90;;;;;;5095301;28;20542;-75
2023/10/18 01:50:39;;;;;;;17.75;12.70;;;5.60;99.90;;;;;;5113824;28;20069;-74
2023/10/18 01:53:15;;;;;;;19.75;12.73;;;5.60;99.90;;;;;;5095159;28;20093;-77
2023/10/18 01:55:43;;;;;;;19.42;12.68;;;5.60;99.90;;;;;;5078469;28;20056;-74
2023/10/18 01:58:10;;;;;;;16.95;12.93;;;5.60;99.90;;;;;;5113020;28;20051;-64
2023/10/18 02:00:41;;;;;;;18.30;13.48;;;5.60;99.90;;;;;;5113583;28;20385;-65
2023/10/18 02:03:08;;;;;;;19.95;13.50;;;5.60;99.90;;;;;;5113070;28;20521;-65
2023/10/18 02:05:43;;;;;;;20.80;13.80;;;5.70;99.90;;;;;;5113380;28;20393;-64
2023/10/18 02:08:09;;;;;;;16.35;12.38;;;5.60;99.90;;;;;;5112785;28;20043;-65
2023/10/18 02:10:34;;;;;;;18.98;12.93;;;5.60;99.90;;;;;;5113299;28;20048;-65
2023/10/18 02:13:00;;;;;;;17.92;13.02;;;5.60;99.90;;;;;;5061277;28;20131;-64
2023/10/18 02:15:26;;;;;;;20.33;13.00;;;5.60;99.90;;;;;;5112566;28;20048;-64
2023/10/18 02:17:56;;;;;;;16.85;12.38;;;5.60;99.90;;;;;;5113026;28;20050;-65
2023/10/18 02:20:26;;;;;;;15.82;12.27;;;5.60;99.90;;;;;;5094715;28;20043;-64
2023/10/18 02:22:59;;;;;;;16.58;12.75;;;5.50;99.90;;;;;;5113291;28;20047;-65
2023/10/18 02:28:08;;;;;;;17.45;11.40;;;5.50;99.90;;;;;;5112907;28;20130;-66
2023/10/18 02:30:38;;;;;;;17.92;11.48;;;5.50;99.90;;;;;;5112922;28;20052;-64
2023/10/18 02:33:05;;;;;;;15.73;10.93;;;5.50;99.90;;;;;;5094816;28;20040;-65
2023/10/18 02:35:34;;;;;;;15.55;11.27;;;5.50;99.90;;;;;;5094108;28;20493;-64
2023/10/18 02:38:08;;;;;;;15.07;11.07;;;5.50;99.90;;;;;;5112702;28;20065;-64
2023/10/18 02:40:38;;;;;;;16.35;10.77;;;5.50;99.90;;;;;;5112658;28;20056;-64
2023/10/18 02:43:08;;;;;;;12.85;10.75;;;5.40;99.90;;;;;;5094925;28;20409;-65
2023/10/18 02:45:34;;;;;;;15.32;11.25;;;5.40;99.90;;;;;;5112308;28;20054;-65
2023/10/18 02:48:00;;;;;;;16.48;10.80;;;5.40;99.90;;;;;;5112578;28;20126;-65
2023/10/18 02:50:27;;;;;;;17.17;10.68;;;5.40;99.90;;;;;;5094175;28;20047;-65
2023/10/18 02:52:53;;;;;;;14.40;10.13;;;5.30;99.90;;;;;;5112581;28;20050;-65
2023/10/18 02:55:19;;;;;;;13.90;10.63;;;5.30;99.90;;;;;;5112405;28;20703;-65
2023/10/18 02:57:49;;;;;;;14.63;10.55;;;5.30;99.90;;;;;;5112595;28;20043;-65
2023/10/18 03:00:18;;;;;;;14.85;10.20;;;5.30;99.90;;;;;;5112074;28;20071;-65
2023/10/18 03:02:44;;;;;;;13.18;10.45;;;5.30;99.90;;;;;;5094445;28;20047;-65
2023/10/18 03:05:11;;;;;;;14.40;10.10;;;5.20;99.90;;;;;;5094293;28;20051;-65
2023/10/18 03:07:37;;;;;;;12.77;10.13;;;5.20;99.90;;;;;;5093945;28;20048;-65
2023/10/18 03:10:13;;;;;;;12.20;10.25;;;5.20;99.90;;;;;;5094288;28;20052;-65
2023/10/18 03:12:44;;;;;;;13.50;9.90;;;5.20;99.90;;;;;;5112109;28;20070;-65
2023/10/18 03:15:12;;;;;;;14.30;9.95;;;5.20;99.90;;;;;;5112404;28;20047;-65
2023/10/18 03:17:38;;;;;;;14.88;10.27;;;5.20;99.90;;;;;;5094062;28;20054;-66
2023/10/18 03:20:22;;;;;;;11.63;9.63;;;5.10;99.90;;;;;;5093837;28;20463;-65
2023/10/18 03:22:49;;;;;;;18.67;10.65;;;5.10;99.90;;;;;;5112557;28;20043;-64
2023/10/18 03:25:26;;;;;;;12.73;9.73;;;5.10;99.90;;;;;;5112124;28;20484;-66
2023/10/18 03:28:03;;;;;;;13.82;9.95;;;5.10;99.90;;;;;;5112685;28;20130;-65
2023/10/18 03:30:45;;;;;;;11.80;9.15;;;5.10;99.90;;;;;;5111730;28;20481;-65
2023/10/18 03:33:12;;;;;;;12.98;10.88;;;5.10;99.90;;;;;;5112161;28;20123;-65
2023/10/18 03:35:41;;;;;;;13.10;9.93;;;5.00;99.90;;;;;;5111880;28;20040;-65
2023/10/18 03:38:21;;;;;;;15.63;10.43;;;5.10;99.90;;;;;;5112551;28;20050;-65
2023/10/18 03:40:57;;;;;;;15.15;10.70;;;5.10;99.90;;;;;;5112380;28;20621;-65
2023/10/18 03:43:32;;;;;;;15.32;11.10;;;5.00;99.90;;;;;;5111505;28;20503;-65
2023/10/18 03:46:29;;;;;;;14.23;10.52;;;5.10;99.90;;;;;;5112172;28;20054;-66
2023/10/18 03:48:54;;;;;;;16.85;10.85;;;5.00;99.90;;;;;;5111710;28;20055;-66
2023/10/18 03:51:23;;;;;;;20.45;11.75;;;5.10;99.90;;;;;;5111699;28;20047;-66
2023/10/18 03:53:55;;;;;;;14.57;11.13;;;5.00;99.90;;;;;;5111870;28;20467;-65
2023/10/18 03:56:22;;;;;;;15.18;11.45;;;5.10;99.90;;;;;;5111779;28;20405;-64
2023/10/18 03:59:00;;;;;;;13.55;11.07;;;5.10;99.90;;;;;;5095491;28;20526;-63
2023/10/18 04:01:39;;;;;;;16.40;12.18;;;5.00;99.90;;;;;;5115322;28;20397;-65
2023/10/18 04:04:06;;;;;;;16.77;12.52;;;5.00;99.90;;;;;;5115674;28;20043;-64
2023/10/18 04:06:35;;;;;;;15.43;11.20;;;5.00;99.90;;;;;;5115079;28;20051;-64
2023/10/18 04:09:13;;;;;;;18.33;12.75;;;5.00;99.90;;;;;;5115632;28;20432;-64
2023/10/18 04:11:39;;;;;;;17.80;13.02;;;5.00;99.90;;;;;;5096814;28;20493;-64
2023/10/18 04:14:05;;;;;;;18.08;12.70;;;5.00;99.90;;;;;;5097245;28;20104;-64
2023/10/18 04:16:32;;;;;;;19.02;13.18;;;5.00;99.90;;;;;;5115108;28;20399;-64
2023/10/18 04:18:58;;;;;;;18.02;13.90;;;5.00;99.90;;;;;;5080325;28;20043;-64
2023/10/18 04:21:27;;;;;;;19.45;13.82;;;4.90;99.90;;;;;;5097008;28;20083;-65
2023/10/18 04:23:56;;;;;;;20.00;13.40;;;5.00;99.90;;;;;;5115378;28;20054;-65
2023/10/18 04:26:25;;;;;;;19.23;14.50;;;5.00;99.90;;;;;;5097113;28;20086;-65
2023/10/18 04:29:01;;;;;;;20.20;14.90;;;5.00;99.90;;;;;;5115356;28;20051;-64
2023/10/18 04:31:27;;;;;;;22.90;15.05;;;5.00;99.90;;;;;;5114728;28;20097;-64
2023/10/18 04:33:54;;;;;;;18.08;14.40;;;4.90;99.90;;;;;;5113927;28;20047;-64
2023/10/18 04:36:23;;;;;;;19.85;15.07;;;5.00;99.90;;;;;;5114584;28;20134;-64
2023/10/18 04:38:51;;;;;;;19.75;14.43;;;4.90;99.90;;;;;;5113817;28;20134;-64
2023/10/18 04:41:24;;;;;;;20.42;15.13;;;4.90;99.90;;;;;;5114939;28;20401;-64
2023/10/18 04:44:06;;;;;;;22.38;15.07;;;4.90;99.90;;;;;;5114417;28;20052;-63
2023/10/18 04:46:33;;;;;;;19.80;15.88;;;4.90;99.90;;;;;;5114222;28;20039;-64
2023/10/18 04:51:33;;;;;;;19.35;15.07;;;4.90;99.90;;;;;;5114611;28;20105;-64
2023/10/18 04:54:01;;;;;;;19.55;14.68;;;4.90;99.90;;;;;;5114776;28;20043;-64
2023/10/18 04:56:32;;;;;;;21.83;15.05;;;4.90;99.90;;;;;;5114467;28;20044;-66
2023/10/18 05:04:21;;;;;;;20.98;15.85;;;4.90;99.90;;;;;;5114531;28;20100;-64
2023/10/18 05:06:54;;;;;;;21.48;16.52;;;4.80;99.90;;;;;;5095952;28;20131;-65
2023/10/18 05:09:34;;;;;;;22.38;16.70;;;4.90;99.90;;;;;;5113806;28;20079;-65
2023/10/18 05:14:43;;;;;;;24.73;17.20;;;4.80;99.90;;;;;;5096063;28;20051;-64
2023/10/18 05:17:22;;;;;;;23.77;16.48;;;4.80;99.90;;;;;;5096216;28;20082;-64
2023/10/18 05:19:55;;;;;;;22.58;16.98;;;4.80;99.90;;;;;;5113893;28;20126;-64
2023/10/18 05:22:24;;;;;;;23.25;17.17;;;4.70;99.90;;;;;;5097229;28;20118;-65
2023/10/18 05:28:15;;;;;;;21.92;17.58;;;4.70;99.90;;;;;;5074094;28;20054;-65
2023/10/18 05:43:47;;;;;;;23.17;17.55;;;4.70;99.90;;;;;;5095215;28;20134;-64
2023/10/18 05:46:12;;;;;;;22.80;17.45;;;4.70;99.90;;;;;;5095640;28;20544;-64
2023/10/18 05:48:41;;;;;;;26.40;18.33;;;4.70;99.90;;;;;;5094801;28;20652;-64
2023/10/18 05:53:51;;;;;;;23.85;17.90;;;4.70;99.90;;;;;;5112886;28;20110;-65
2023/10/18 05:56:22;;;;;;;24.73;18.63;;;4.70;99.90;;;;;;5112950;28;20055;-64
2023/10/18 05:59:15;;;;;;;29.02;19.15;;;4.70;99.90;;;;;;5095127;28;20040;-64
2023/10/18 06:01:34;;;;;;;26.75;19.42;;;4.70;99.90;;;;;;5112885;28;20220;-64
2023/10/18 06:03:59;;;;;;;22.92;17.83;;;4.70;99.90;;;;;;5077782;28;20131;-65
2023/10/18 06:06:25;;;;;;;25.02;17.02;;;4.70;99.90;;;;;;5112871;28;20480;-65
2023/10/18 06:08:51;;;;;;;24.33;17.73;;;4.70;99.90;;;;;;5094407;28;20035;-63
2023/10/18 06:11:20;;;;;;;23.25;18.80;;;4.70;99.90;;;;;;5112575;28;20048;-66
2023/10/18 06:13:46;;;;;;;28.35;19.30;;;4.70;99.90;;;;;;5112770;28;20463;-64
2023/10/18 06:16:24;;;;;;;21.88;16.77;;;4.70;99.90;;;;;;5078547;28;20040;-64
2023/10/18 06:18:49;;;;;;;21.23;18.05;;;4.70;99.90;;;;;;5112749;28;20044;-67
2023/10/18 06:21:19;;;;;;;25.73;18.55;;;4.70;99.90;;;;;;5078019;28;20113;-65
2023/10/18 06:23:55;;;;;;;24.35;19.33;;;4.70;99.90;;;;;;5112581;28;20054;-65
2023/10/18 06:26:28;;;;;;;24.02;19.65;;;4.70;99.90;;;;;;5113039;28;20094;-66
2023/10/18 06:29:02;;;;;;;25.13;18.75;;;4.70;99.90;;;;;;5077925;28;20138;-65
2023/10/18 06:31:32;;;;;;;25.35;19.13;;;4.80;99.90;;;;;;5112959;28;20044;-65
2023/10/18 06:34:04;;;;;;;24.05;19.13;;;4.80;99.90;;;;;;5094726;28;20105;-65
2023/10/18 06:36:32;;;;;;;25.23;19.63;;;4.80;99.90;;;;;;5095138;28;20083;-65
2023/10/18 06:38:58;;;;;;;24.98;19.45;;;4.80;99.90;;;;;;5112534;28;20058;-66
2023/10/18 06:41:29;;;;;;;26.38;20.00;;;4.90;99.90;;;;;;5112772;28;20062;-65
2023/10/18 06:43:58;;;;;;;25.65;20.02;;;4.90;99.90;;;;;;5112557;28;20130;-65
2023/10/18 06:46:26;;;;;;;23.52;19.40;;;4.90;99.90;;;;;;5094655;28;20504;-65
2023/10/18 06:48:55;;;;;;;23.80;19.25;;;5.00;99.90;;;;;;5112521;28;20047;-65
2023/10/18 06:51:31;;;;;;;22.65;18.75;;;5.00;99.90;;;;;;5112397;28;20481;-65
2023/10/18 06:53:59;;;;;;;24.40;19.20;;;5.00;99.90;;;;;;5112468;28;20040;-67
2023/10/18 06:56:26;;;;;;;25.75;18.88;;;5.10;99.90;;;;;;5112509;28;20400;-66
2023/10/18 06:59:04;;;;;;;29.27;19.23;;;5.20;99.90;;;;;;5111829;28;20061;-66
2023/10/18 07:01:33;;;;;;;24.30;18.27;;;5.20;99.90;;;;;;5112797;28;20055;-66
2023/10/18 07:04:00;;;;;;;26.17;20.38;;;5.20;99.90;;;;;;5094240;28;20429;-66
2023/10/18 07:06:29;;;;;;;26.17;19.02;;;5.30;99.90;;;;;;5112437;28;20063;-66
2023/10/18 07:08:56;;;;;;;27.15;18.45;;;5.30;99.90;;;;;;5112416;28;20048;-66
2023/10/18 07:11:23;;;;;;;24.05;18.58;;;5.40;99.90;;;;;;5094408;28;20047;-66
2023/10/18 07:13:54;;;;;;;25.25;17.35;;;5.50;99.90;;;;;;5112280;28;20051;-65
2023/10/18 07:16:38;;;;;;;25.70;17.83;;;5.50;99.90;;;;;;5094420;28;20052;-66
2023/10/18 07:19:06;;;;;;;25.05;18.17;;;5.60;99.90;;;;;;5112196;28;20618;-66
2023/10/18 07:21:33;;;;;;;25.38;17.95;;;5.70;99.90;;;;;;5112543;28;20046;-64
2023/10/18 07:24:11;;;;;;;29.48;17.83;;;5.80;99.90;;;;;;5112062;28;20054;-67
2023/10/18 07:26:40;;;;;;;23.30;16.77;;;6.00;99.90;;;;;;5112565;28;20100;-66
2023/10/18 07:29:09;;;;;;;21.85;14.70;;;6.20;99.90;;;;;;5111859;28;20052;-67
2023/10/18 07:31:38;;;;;;;23.88;16.90;;;6.40;99.90;;;;;;5112292;28;20047;-65
2023/10/18 07:34:11;;;;;;;24.20;15.55;;;6.60;99.90;;;;;;5114612;28;20044;-66
2023/10/18 07:36:38;;;;;;;21.20;14.77;;;6.90;99.90;;;;;;5116320;28;20458;-68
2023/10/18 07:39:11;;;;;;;17.55;13.02;;;7.10;99.90;;;;;;5098065;28;20051;-66
2023/10/18 07:41:37;;;;;;;24.25;15.15;;;7.30;99.90;;;;;;5116371;28;20059;-68
2023/10/18 07:44:06;;;;;;;19.83;14.27;;;7.50;99.90;;;;;;5097576;28;20043;-66
2023/10/18 07:46:41;;;;;;;18.60;13.70;;;7.70;99.90;;;;;;5116402;28;20386;-67
2023/10/18 07:49:15;;;;;;;19.08;12.93;;;7.80;99.90;;;;;;5097627;28;20538;-66
2023/10/18 07:51:49;;;;;;;26.70;14.82;;;8.10;99.90;;;;;;5116110;28;20063;-66
2023/10/18 07:54:16;;;;;;;21.40;13.45;;;8.10;99.90;;;;;;5098004;28;20054;-66
2023/10/18 07:56:49;;;;;;;20.67;13.00;;;8.20;99.90;;;;;;5097956;28;20572;-66
2023/10/18 07:59:28;;;;;;;16.75;11.55;;;8.30;99.90;;;;;;5115784;28;20040;-66
2023/10/18 08:02:43;;;;;;;18.75;13.32;;;8.40;99.90;;;;;;5081775;28;20043;-67
2023/10/18 08:04:43;;;;;;;14.88;9.95;;;8.50;99.90;;;;;;5083507;28;20404;-67
2023/10/18 08:07:10;;;;;;;18.50;10.27;;;8.60;99.90;;;;;;5115389;28;20043;-67
2023/10/18 08:09:40;;;;;;;16.35;12.35;;;8.80;99.90;;;;;;5097849;28;20036;-65
2023/10/18 08:12:08;;;;;;;16.42;10.85;;;8.90;99.90;;;;;;5115332;28;20044;-70
2023/10/18 08:14:33;;;;;;;18.25;12.05;;;9.00;99.90;;;;;;5097834;28;20047;-72
2023/10/18 08:17:08;;;;;;;21.30;13.05;;;9.10;99.90;;;;;;5115153;28;20047;-69
2023/10/18 08:19:44;;;;;;;17.83;11.00;;;9.20;99.90;;;;;;5098923;28;20451;-70
2023/10/18 08:24:41;;;;;;;15.20;9.77;;;9.40;99.90;;;;;;5097662;28;20051;-72
2023/10/18 08:27:10;;;;;;;16.08;12.15;;;9.50;99.90;;;;;;5115117;28;20435;-71
2023/10/18 08:29:37;;;;;;;16.25;12.13;;;9.50;99.90;;;;;;5097360;28;20043;-72
2023/10/18 08:32:14;;;;;;;18.27;12.02;;;9.40;99.90;;;;;;5114805;28;20094;-72
2023/10/18 08:34:41;;;;;;;16.95;12.35;;;9.40;99.90;;;;;;5097234;28;20047;-70
2023/10/18 08:37:10;;;;;;;17.50;11.48;;;9.40;99.90;;;;;;5096555;28;20076;-71
2023/10/18 08:39:39;;;;;;;14.52;10.77;;;9.30;99.90;;;;;;5080735;28;20074;-71
2023/10/18 08:42:13;;;;;;;17.83;10.75;;;9.20;99.90;;;;;;5096440;28;20036;-71
2023/10/18 08:44:39;;;;;;;14.30;10.75;;;9.10;99.90;;;;;;5114892;28;20134;-72
2023/10/18 08:49:52;;;;;;;17.70;12.07;;;8.90;99.90;;;;;;5114752;28;20576;-70
2023/10/18 08:52:21;;;;;;;15.95;9.38;;;8.80;99.90;;;;;;5114750;28;20044;-72
2023/10/18 08:54:51;;;;;;;14.60;10.90;;;8.80;99.90;;;;;;5096787;28;20090;-73
2023/10/18 08:57:32;;;;;;;15.85;10.43;;;8.80;99.90;;;;;;5080046;28;20087;-72
2023/10/18 09:01:02;;;;;;;19.85;9.55;;;8.70;99.90;;;;;;5079658;28;20138;-71
2023/10/18 09:03:07;;;;;;;14.90;9.95;;;8.70;99.90;;;;;;5095744;28;20063;-70
2023/10/18 09:05:35;;;;;;;16.48;10.93;;;8.60;99.90;;;;;;5114717;28;20047;-70
2023/10/18 09:08:05;;;;;;;12.57;9.10;;;8.60;99.90;;;;;;5114617;28;20086;-68
2023/10/18 09:18:37;;;;;;;13.15;9.98;;;8.70;99.90;;;;;;5066598;28;20393;-72
2023/10/18 09:21:26;;;;;;;14.07;9.50;;;8.70;99.90;;;;;;5078759;28;20500;-72
2023/10/18 09:23:50;;;;;;;13.10;9.18;;;8.80;99.90;;;;;;5095695;28;20584;-68
2023/10/18 09:26:26;;;;;;;15.18;9.60;;;8.80;99.90;;;;;;5095997;28;20058;-72
2023/10/18 09:28:56;;;;;;;14.38;9.13;;;8.80;99.90;;;;;;5079588;28;20160;-75
2023/10/18 09:31:22;;;;;;;13.25;8.75;;;8.90;99.90;;;;;;5095769;28;20221;-70
2023/10/18 09:34:07;;;;;;;13.15;9.15;;;9.00;99.90;;;;;;5078896;28;20123;-69
2023/10/18 09:36:38;;;;;;;13.65;9.88;;;9.00;99.90;;;;;;5096036;28;20094;-70
2023/10/18 09:39:09;;;;;;;13.05;9.02;;;9.10;99.90;;;;;;5079215;28;20040;-71
2023/10/18 09:41:37;;;;;;;12.68;8.57;;;9.10;99.90;;;;;;5113993;28;20087;-71
2023/10/18 09:44:04;;;;;;;14.45;8.93;;;9.20;99.90;;;;;;5096085;28;20057;-72
2023/10/18 09:46:33;;;;;;;12.35;8.95;;;9.20;99.90;;;;;;5113752;28;20054;-72
2023/10/18 09:49:00;;;;;;;15.13;9.35;;;9.20;99.90;;;;;;5113992;28;20104;-71
2023/10/18 09:51:26;;;;;;;13.70;9.85;;;9.20;99.90;;;;;;5113411;28;20558;-70
2023/10/18 09:53:53;;;;;;;11.18;8.93;;;9.20;99.90;;;;;;5114088;28;20063;-70
2023/10/18 09:56:45;;;;;;;14.02;8.80;;;9.30;99.90;;;;;;5112677;28;20131;-71
2023/10/18 09:59:08;;;;;;;12.77;8.38;;;9.30;99.90;;;;;;5112882;28;20094;-71
2023/10/18 10:04:14;;;;;;;13.10;9.43;;;9.40;99.90;;;;;;5113233;28;20079;-70
2023/10/18 10:06:47;;;;;;;13.40;8.95;;;9.50;99.90;;;;;;5113255;28;20044;-69
2023/10/18 10:09:14;;;;;;;13.23;9.00;;;9.50;99.90;;;;;;5095032;28;20040;-70
2023/10/18 10:11:45;;;;;;;15.15;10.07;;;9.50;99.90;;;;;;5113713;28;20043;-70
2023/10/18 10:14:15;;;;;;;12.60;9.25;;;9.60;99.90;;;;;;5113030;28;20044;-69
2023/10/18 10:17:05;;;;;;;14.73;9.32;;;9.60;99.90;;;;;;5095968;28;20051;-70
2023/10/18 10:19:42;;;;;;;12.48;8.05;;;9.70;99.90;;;;;;5078625;28;20101;-70
2023/10/18 10:22:11;;;;;;;15.40;8.73;;;9.70;99.90;;;;;;5113293;28;20153;-69
2023/10/18 10:24:42;;;;;;;12.88;9.02;;;9.70;99.90;;;;;;5113305;28;20077;-70
2023/10/18 10:30:03;;;;;;;12.30;8.10;;;9.80;99.90;;;;;;5113154;28;20054;-70
2023/10/18 10:32:32;;;;;;;11.25;8.05;;;9.90;99.90;;;;;;5112893;28;20047;-69
2023/10/18 10:35:17;;;;;;;12.52;8.88;;;9.90;99.90;;;;;;5113210;28;20044;-70
2023/10/18 10:37:52;;;;;;;12.45;8.07;;;10.00;99.90;;;;;;5113283;28;20118;-69
2023/10/18 10:43:03;;;;;;;10.32;6.68;;;10.10;99.90;;;;;;5113360;28;20044;-70
2023/10/18 10:48:31;;;;;;;11.68;8.40;;;10.20;99.90;;;;;;5085857;28;20092;-71
2023/10/18 10:51:13;;;;;;;11.27;7.65;;;10.20;99.90;;;;;;5094871;28;20108;-71
2023/10/18 10:53:59;;;;;;;11.23;8.32;;;10.30;99.90;;;;;;5112838;28;20527;-71
2023/10/18 10:56:27;;;;;;;10.50;5.97;;;10.30;99.90;;;;;;5094412;28;20055;-69
2023/10/18 11:01:40;;;;;;;12.55;8.20;;;10.90;99.90;;;;;;5112665;28;20039;-68
2023/10/18 11:04:14;;;;;;;10.80;8.13;;;10.50;99.90;;;;;;5095576;28;20040;-75
2023/10/18 11:06:44;;;;;;;11.13;8.32;;;10.60;99.90;;;;;;5096800;28;20039;-77
2023/10/18 11:09:18;;;;;;;9.57;7.13;;;10.60;99.90;;;;;;5099507;28;20039;-77
2023/10/18 11:11:45;;;;;;;9.50;7.13;;;10.60;99.90;;;;;;5123471;28;20111;-78
2023/10/18 11:14:18;;;;;;;10.80;7.43;;;10.70;99.90;;;;;;5121774;28;20284;-78
2023/10/18 11:16:53;;;;;;;11.40;7.82;;;10.70;99.90;;;;;;5123776;28;20051;-79
2023/10/18 11:19:28;;;;;;;12.38;8.95;;;10.70;99.90;;;;;;5102304;28;20054;-78
2023/10/18 11:21:58;;;;;;;12.18;8.27;;;10.70;99.90;;;;;;5101533;28;20059;-77
2023/10/18 11:24:25;;;;;;;10.38;7.95;;;10.80;99.90;;;;;;5100797;28;20055;-79
2023/10/18 11:26:51;;;;;;;11.10;7.15;;;10.80;99.90;;;;;;5101669;28;20054;-78
2023/10/18 11:29:24;;;;;;;14.55;8.02;;;10.90;99.90;;;;;;5100583;28;20043;-74
2023/10/18 11:31:58;;;;;;;11.80;7.50;;;10.90;99.90;;;;;;5100402;28;20048;-78
2023/10/18 11:34:25;;;;;;;9.85;6.97;;;10.90;99.90;;;;;;5119127;28;20051;-78
2023/10/18 11:36:55;;;;;;;10.82;7.80;;;10.90;99.90;;;;;;5120342;28;20366;-77
2023/10/18 11:39:23;;;;;;;10.35;7.78;;;10.80;99.90;;;;;;5119721;28;20463;-78
2023/10/18 11:41:49;;;;;;;11.27;7.35;;;10.90;99.90;;;;;;5119151;28;20430;-77
2023/10/18 11:44:26;;;;;;;12.98;7.82;;;10.90;99.90;;;;;;5083112;28;20052;-77
2023/10/18 11:46:56;;;;;;;9.90;7.80;;;11.00;99.90;;;;;;5116625;28;20074;-78
2023/10/18 11:49:33;;;;;;;10.68;7.13;;;11.00;99.90;;;;;;5116331;28;20044;-78
2023/10/18 11:51:59;;;;;;;10.45;6.93;;;11.00;99.90;;;;;;5098263;28;20047;-78
2023/10/18 11:54:38;;;;;;;13.35;8.45;;;11.10;99.90;;;;;;5116190;28;20043;-77
2023/10/18 11:57:23;;;;;;;11.18;7.63;;;11.10;99.90;;;;;;5116386;28;20055;-77
2023/10/18 11:59:57;;;;;;;12.15;7.88;;;11.10;99.90;;;;;;5116721;28;20051;-78
2023/10/18 12:02:30;;;;;;;10.60;7.90;;;11.10;99.90;;;;;;5098011;28;20051;-77
2023/10/18 12:04:57;;;;;;;10.65;8.05;;;11.10;99.90;;;;;;5098098;28;20046;-76
2023/10/18 12:07:24;;;;;;;12.00;7.97;;;11.10;99.90;;;;;;5081037;28;20073;-77
2023/10/18 12:09:54;;;;;;;11.90;7.28;;;11.10;99.90;;;;;;5097921;28;20401;-78
2023/10/18 12:12:20;;;;;;;9.07;7.22;;;11.10;99.90;;;;;;5115796;28;20051;-79
2023/10/18 12:14:47;;;;;;;8.38;6.93;;;11.10;99.90;;;;;;5115209;28;20039;-78
2023/10/18 12:17:14;;;;;;;12.50;7.80;;;11.10;99.90;;;;;;5097923;28;20093;-79
2023/10/18 12:19:41;;;;;;;13.30;7.80;;;11.20;99.90;;;;;;5097217;28;20130;-78
2023/10/18 12:22:09;;;;;;;9.60;7.28;;;11.20;99.90;;;;;;5098090;28;20374;-74
2023/10/18 12:24:36;;;;;;;10.65;6.60;;;11.20;99.90;;;;;;5097369;28;20393;-75
2023/10/18 12:29:47;;;;;;;12.13;7.43;;;11.30;99.90;;;;;;5115353;28;20181;-78
2023/10/18 12:32:30;;;;;;;11.82;7.93;;;11.30;99.90;;;;;;5097394;28;20097;-77
2023/10/18 12:34:57;;;;;;;10.43;7.70;;;11.30;99.90;;;;;;5115429;28;20058;-77
2023/10/18 12:37:32;;;;;;;10.02;6.18;;;11.30;99.90;;;;;;5115519;28;20393;-77
2023/10/18 12:39:59;;;;;;;9.93;6.65;;;11.30;99.90;;;;;;5081651;28;20072;-78
2023/10/18 12:42:25;;;;;;;9.90;7.60;;;11.40;99.90;;;;;;5097358;28;20377;-78
2023/10/18 12:44:55;;;;;;;9.40;6.10;;;11.40;99.90;;;;;;5114884;28;20581;-78
2023/10/18 12:47:21;;;;;;;11.57;7.18;;;11.40;99.90;;;;;;5080680;28;20499;-77
2023/10/18 12:49:50;;;;;;;12.93;7.55;;;11.40;99.90;;;;;;5096795;28;20055;-78
2023/10/18 12:55:05;;;;;;;9.20;5.38;;;11.40;99.90;;;;;;5097086;28;20059;-78
2023/10/18 12:57:34;;;;;;;9.40;7.00;;;11.40;99.90;;;;;;5113378;28;20055;-75
2023/10/18 13:00:16;;;;;;;10.10;7.13;;;11.40;99.90;;;;;;5114890;28;20392;-78
2023/10/18 13:05:20;;;;;;;11.00;6.80;;;11.50;99.90;;;;;;5114898;28;20056;-78
2023/10/18 13:07:46;;;;;;;10.48;7.47;;;11.40;99.90;;;;;;5096321;28;20103;-77
2023/10/18 13:10:13;;;;;;;8.68;6.18;;;11.40;99.90;;;;;;5114721;28;20054;-78
2023/10/18 13:12:51;;;;;;;7.97;6.03;;;11.40;99.90;;;;;;5096085;28;20047;-77
2023/10/18 13:15:17;;;;;;;10.13;7.28;;;11.40;99.90;;;;;;5114605;28;20084;-77
2023/10/18 13:17:43;;;;;;;8.85;5.75;;;11.30;99.90;;;;;;5114238;28;20104;-78
2023/10/18 13:20:15;;;;;;;10.00;7.45;;;11.30;99.90;;;;;;5114428;28;20517;-78
2023/10/18 13:22:41;;;;;;;13.98;7.78;;;11.30;99.90;;;;;;5096259;28;20401;-78
2023/10/18 13:25:09;;;;;;;8.45;6.07;;;11.30;99.90;;;;;;5114662;28;20043;-78
2023/10/18 13:27:37;;;;;;;9.60;6.85;;;11.30;99.90;;;;;;5079247;28;20051;-77
2023/10/18 13:30:31;;;;;;;9.52;5.85;;;11.30;99.90;;;;;;5079335;28;20040;-78
2023/10/18 13:32:50;;;;;;;11.45;7.78;;;11.30;99.90;;;;;;5112107;28;20154;-78
2023/10/18 13:35:16;;;;;;;10.45;7.70;;;11.30;99.90;;;;;;5114480;28;20086;-78
2023/10/18 13:37:43;;;;;;;10.48;6.90;;;11.30;99.90;;;;;;5113855;28;20092;-78
2023/10/18 13:40:18;;;;;;;9.50;7.68;;;11.30;99.90;;;;;;5114188;28;20099;-78
2023/10/18 13:42:45;;;;;;;9.48;6.97;;;11.30;99.90;;;;;;5095809;28;20050;-78
2023/10/18 13:45:14;;;;;;;12.50;7.32;;;11.20;99.90;;;;;;5096095;28;20051;-78
2023/10/18 13:47:40;;;;;;;8.57;5.00;;;11.20;99.90;;;;;;5062740;28;20496;-77
2023/10/18 13:50:10;;;;;;;12.07;8.00;;;11.20;99.90;;;;;;5114025;28;20130;-77
2023/10/18 13:52:42;;;;;;;12.10;6.90;;;11.20;99.90;;;;;;5063578;28;20112;-76
2023/10/18 13:55:08;;;;;;;13.95;8.18;;;11.20;99.90;;;;;;5113747;28;20052;-78
2023/10/18 13:57:35;;;;;;;11.32;6.68;;;11.20;99.90;;;;;;5095919;28;20059;-75
2023/10/18 14:00:06;;;;;;;9.98;7.13;;;11.20;99.90;;;;;;5113500;28;20082;-78
2023/10/18 14:02:36;;;;;;;12.18;6.70;;;11.20;99.90;;;;;;5114325;28;20459;-77
2023/10/18 14:05:07;;;;;;;17.48;9.02;;;11.30;99.90;;;;;;5113822;28;20043;-78
2023/10/18 14:07:35;;;;;;;9.07;6.43;;;11.30;99.90;;;;;;5114043;28;20044;-78